sensor_id;sensor_type;location;lat;lon;timestamp;pressure;altitude;pressure_sealevel;temperature;humidity
58471;BME280;44258;51.288;12.068;2023-07-28T00:00:11;99353.84;;;18.97;76.67
58471;BME280;44258;51.288;12.068;2023-07-28T00:02:58;99355.41;;;19.00;76.28
58471;BME280;44258;51.288;12.068;2023-07-28T00:05:45;99356.28;;;19.08;75.60
58471;BME280;44258;51.288;12.068;2023-07-28T00:08:32;99356.63;;;19.13;75.39
58471;BME280;44258;51.288;12.068;2023-07-28T00:11:20;99361.28;;;19.29;74.80
58471;BME280;44258;51.288;12.068;2023-07-28T00:14:07;99347.63;;;19.13;75.65
58471;BME280;44258;51.288;12.068;2023-07-28T00:16:55;99343.06;;;19.22;75.50
58471;BME280;44258;51.288;12.068;2023-07-28T00:19:42;99353.97;;;19.30;74.77
58471;BME280;44258;51.288;12.068;2023-07-28T00:22:30;99353.59;;;19.17;75.54
58471;BME280;44258;51.288;12.068;2023-07-28T00:25:17;99341.72;;;19.26;74.93
58471;BME280;44258;51.288;12.068;2023-07-28T00:28:05;99349.22;;;19.32;74.58
58471;BME280;44258;51.288;12.068;2023-07-28T00:30:52;99346.50;;;19.32;73.87
58471;BME280;44258;51.288;12.068;2023-07-28T00:33:39;99349.38;;;19.30;74.25
58471;BME280;44258;51.288;12.068;2023-07-28T00:36:27;99347.88;;;19.36;74.13
58471;BME280;44258;51.288;12.068;2023-07-28T00:39:16;99356.88;;;19.37;73.96
58471;BME280;44258;51.288;12.068;2023-07-28T00:42:04;99355.38;;;19.50;73.67
58471;BME280;44258;51.288;12.068;2023-07-28T00:44:52;99350.44;;;19.54;73.21
58471;BME280;44258;51.288;12.068;2023-07-28T00:47:39;99345.50;;;19.49;73.15
58471;BME280;44258;51.288;12.068;2023-07-28T00:50:26;99348.03;;;19.43;73.17
58471;BME280;44258;51.288;12.068;2023-07-28T00:53:15;99350.91;;;19.33;73.87
58471;BME280;44258;51.288;12.068;2023-07-28T00:56:02;99346.66;;;19.30;73.88
58471;BME280;44258;51.288;12.068;2023-07-28T00:58:48;99349.69;;;19.27;74.30
58471;BME280;44258;51.288;12.068;2023-07-28T01:01:37;99350.03;;;19.24;74.16
58471;BME280;44258;51.288;12.068;2023-07-28T01:04:23;99342.53;;;19.18;74.75
58471;BME280;44258;51.288;12.068;2023-07-28T01:07:13;99345.94;;;19.20;74.52
58471;BME280;44258;51.288;12.068;2023-07-28T01:10:01;99339.94;;;19.08;74.86
58471;BME280;44258;51.288;12.068;2023-07-28T01:12:48;99342.66;;;19.08;74.97
58471;BME280;44258;51.288;12.068;2023-07-28T01:15:35;99337.75;;;19.12;75.01
58471;BME280;44258;51.288;12.068;2023-07-28T01:18:23;99338.59;;;19.12;75.15
58471;BME280;44258;51.288;12.068;2023-07-28T01:21:13;99336.50;;;18.98;75.52
58471;BME280;44258;51.288;12.068;2023-07-28T01:24:01;99329.72;;;19.10;75.16
58471;BME280;44258;51.288;12.068;2023-07-28T01:26:53;99329.91;;;19.17;74.46
58471;BME280;44258;51.288;12.068;2023-07-28T01:29:40;99327.88;;;19.19;74.37
58471;BME280;44258;51.288;12.068;2023-07-28T01:32:32;99330.13;;;19.32;74.23
58471;BME280;44258;51.288;12.068;2023-07-28T01:35:21;99328.59;;;19.46;73.65
58471;BME280;44258;51.288;12.068;2023-07-28T01:38:08;99334.56;;;19.49;73.56
58471;BME280;44258;51.288;12.068;2023-07-28T01:40:55;99333.22;;;19.53;73.05
58471;BME280;44258;51.288;12.068;2023-07-28T01:43:43;99336.31;;;19.59;72.78
58471;BME280;44258;51.288;12.068;2023-07-28T01:46:30;99336.31;;;19.59;72.84
58471;BME280;44258;51.288;12.068;2023-07-28T01:49:17;99335.94;;;19.53;72.55
58471;BME280;44258;51.288;12.068;2023-07-28T01:52:04;99332.22;;;19.54;72.81
58471;BME280;44258;51.288;12.068;2023-07-28T01:54:50;99331.53;;;19.52;72.60
58471;BME280;44258;51.288;12.068;2023-07-28T01:57:38;99329.13;;;19.49;72.74
58471;BME280;44258;51.288;12.068;2023-07-28T02:00:26;99324.72;;;19.48;72.72
58471;BME280;44258;51.288;12.068;2023-07-28T02:03:13;99324.34;;;19.43;72.47
58471;BME280;44258;51.288;12.068;2023-07-28T02:06:00;99329.13;;;19.41;72.73
58471;BME280;44258;51.288;12.068;2023-07-28T02:08:47;99321.97;;;19.40;72.67
58471;BME280;44258;51.288;12.068;2023-07-28T02:11:33;99318.38;;;19.40;72.82
58471;BME280;44258;51.288;12.068;2023-07-28T02:14:22;99337.28;;;19.41;72.59
58471;BME280;44258;51.288;12.068;2023-07-28T02:17:10;99330.81;;;19.34;73.23
58471;BME280;44258;51.288;12.068;2023-07-28T02:19:57;99331.16;;;19.31;73.22
58471;BME280;44258;51.288;12.068;2023-07-28T02:22:44;99328.94;;;19.34;72.79
58471;BME280;44258;51.288;12.068;2023-07-28T02:25:32;99332.00;;;19.40;73.03
58471;BME280;44258;51.288;12.068;2023-07-28T02:28:19;99326.75;;;19.38;72.90
58471;BME280;44258;51.288;12.068;2023-07-28T02:31:06;99328.59;;;19.38;72.47
58471;BME280;44258;51.288;12.068;2023-07-28T02:33:54;99337.94;;;19.19;73.74
58471;BME280;44258;51.288;12.068;2023-07-28T02:36:41;99337.25;;;19.17;73.48
58471;BME280;44258;51.288;12.068;2023-07-28T02:39:28;99327.19;;;19.17;73.73
58471;BME280;44258;51.288;12.068;2023-07-28T02:42:15;99342.16;;;19.13;73.71
58471;BME280;44258;51.288;12.068;2023-07-28T02:45:02;99334.31;;;19.02;73.95
58471;BME280;44258;51.288;12.068;2023-07-28T02:47:50;99328.22;;;19.16;73.85
58471;BME280;44258;51.288;12.068;2023-07-28T02:50:46;99332.78;;;19.07;73.96
58471;BME280;44258;51.288;12.068;2023-07-28T02:53:34;99334.66;;;19.07;74.15
58471;BME280;44258;51.288;12.068;2023-07-28T02:56:21;99338.56;;;19.04;74.47
58471;BME280;44258;51.288;12.068;2023-07-28T02:59:07;99340.75;;;19.01;74.50
58471;BME280;44258;51.288;12.068;2023-07-28T03:01:54;99344.25;;;18.85;75.33
58471;BME280;44258;51.288;12.068;2023-07-28T03:04:42;99339.28;;;18.80;75.23
58471;BME280;44258;51.288;12.068;2023-07-28T03:07:30;99356.78;;;18.96;74.91
58471;BME280;44258;51.288;12.068;2023-07-28T03:10:17;99355.06;;;19.03;73.95
58471;BME280;44258;51.288;12.068;2023-07-28T03:13:04;99358.84;;;19.02;74.21
58471;BME280;44258;51.288;12.068;2023-07-28T03:15:53;99348.41;;;18.97;74.36
58471;BME280;44258;51.288;12.068;2023-07-28T03:18:40;99343.50;;;19.01;74.51
58471;BME280;44258;51.288;12.068;2023-07-28T03:21:29;99352.50;;;19.01;74.14
58471;BME280;44258;51.288;12.068;2023-07-28T03:24:17;99351.13;;;18.97;74.25
58471;BME280;44258;51.288;12.068;2023-07-28T03:27:04;99361.53;;;18.93;74.51
58471;BME280;44258;51.288;12.068;2023-07-28T03:29:51;99355.59;;;19.06;73.98
58471;BME280;44258;51.288;12.068;2023-07-28T03:32:37;99354.72;;;18.98;74.50
58471;BME280;44258;51.288;12.068;2023-07-28T03:35:24;99349.66;;;19.11;73.60
58471;BME280;44258;51.288;12.068;2023-07-28T03:38:11;99363.78;;;19.06;73.86
58471;BME280;44258;51.288;12.068;2023-07-28T03:41:02;99359.34;;;19.05;73.44
58471;BME280;44258;51.288;12.068;2023-07-28T03:43:49;99367.66;;;18.96;74.26
58471;BME280;44258;51.288;12.068;2023-07-28T03:46:36;99369.22;;;19.06;73.69
58471;BME280;44258;51.288;12.068;2023-07-28T03:49:23;99378.59;;;19.04;73.97
58471;BME280;44258;51.288;12.068;2023-07-28T03:52:09;99374.19;;;18.85;74.21
58471;BME280;44258;51.288;12.068;2023-07-28T03:54:56;99377.97;;;18.84;74.50
58471;BME280;44258;51.288;12.068;2023-07-28T03:57:45;99372.44;;;18.93;74.28
58471;BME280;44258;51.288;12.068;2023-07-28T04:00:31;99371.53;;;18.93;74.09
58471;BME280;44258;51.288;12.068;2023-07-28T04:03:18;99371.06;;;18.98;74.09
58471;BME280;44258;51.288;12.068;2023-07-28T04:06:05;99382.66;;;19.00;73.88
58471;BME280;44258;51.288;12.068;2023-07-28T04:08:52;99381.78;;;18.99;74.30
58471;BME280;44258;51.288;12.068;2023-07-28T04:11:39;99369.19;;;18.98;74.27
58471;BME280;44258;51.288;12.068;2023-07-28T04:14:27;99362.91;;;18.98;73.80
58471;BME280;44258;51.288;12.068;2023-07-28T04:17:14;99373.66;;;19.07;73.37
58471;BME280;44258;51.288;12.068;2023-07-28T04:20:01;99372.97;;;19.05;73.38
58471;BME280;44258;51.288;12.068;2023-07-28T04:22:48;99372.50;;;18.84;74.43
58471;BME280;44258;51.288;12.068;2023-07-28T04:25:38;99373.13;;;18.69;74.54
58471;BME280;44258;51.288;12.068;2023-07-28T04:28:24;99373.16;;;18.78;74.03
58471;BME280;44258;51.288;12.068;2023-07-28T04:31:13;99372.13;;;18.79;74.44
58471;BME280;44258;51.288;12.068;2023-07-28T04:33:59;99374.00;;;18.78;74.29
58471;BME280;44258;51.288;12.068;2023-07-28T04:36:50;99376.47;;;18.89;73.69
58471;BME280;44258;51.288;12.068;2023-07-28T04:39:37;99371.53;;;18.93;73.58
58471;BME280;44258;51.288;12.068;2023-07-28T04:42:24;99362.81;;;18.81;74.28
58471;BME280;44258;51.288;12.068;2023-07-28T04:45:11;99372.69;;;18.90;74.32
58471;BME280;44258;51.288;12.068;2023-07-28T04:47:59;99369.97;;;18.90;74.43
58471;BME280;44258;51.288;12.068;2023-07-28T04:50:46;99367.81;;;18.94;74.29
58471;BME280;44258;51.288;12.068;2023-07-28T04:53:36;99379.16;;;18.81;74.97
58471;BME280;44258;51.288;12.068;2023-07-28T04:56:22;99383.28;;;18.59;75.19
58471;BME280;44258;51.288;12.068;2023-07-28T04:59:12;99388.78;;;18.67;75.44
58471;BME280;44258;51.288;12.068;2023-07-28T05:01:58;99387.78;;;18.77;75.10
58471;BME280;44258;51.288;12.068;2023-07-28T05:04:47;99386.09;;;18.76;75.37
58471;BME280;44258;51.288;12.068;2023-07-28T05:07:35;99376.38;;;18.73;74.82
58471;BME280;44258;51.288;12.068;2023-07-28T05:10:22;99392.88;;;18.71;74.93
58471;BME280;44258;51.288;12.068;2023-07-28T05:13:09;99387.00;;;18.58;75.39
58471;BME280;44258;51.288;12.068;2023-07-28T05:15:56;99377.34;;;18.38;76.02
58471;BME280;44258;51.288;12.068;2023-07-28T05:18:43;99385.97;;;18.51;75.87
58471;BME280;44258;51.288;12.068;2023-07-28T05:21:31;99378.19;;;18.64;75.50
58471;BME280;44258;51.288;12.068;2023-07-28T05:24:17;99382.94;;;18.62;75.52
58471;BME280;44258;51.288;12.068;2023-07-28T05:27:04;99379.38;;;18.62;75.28
58471;BME280;44258;51.288;12.068;2023-07-28T05:29:51;99382.91;;;18.54;75.76
58471;BME280;44258;51.288;12.068;2023-07-28T05:32:38;99388.84;;;18.84;74.69
58471;BME280;44258;51.288;12.068;2023-07-28T05:35:25;99391.34;;;18.69;75.21
58471;BME280;44258;51.288;12.068;2023-07-28T05:38:13;99388.44;;;18.70;75.00
58471;BME280;44258;51.288;12.068;2023-07-28T05:41:00;99389.78;;;18.66;75.15
58471;BME280;44258;51.288;12.068;2023-07-28T05:43:48;99396.91;;;18.59;75.86
58471;BME280;44258;51.288;12.068;2023-07-28T05:46:35;99392.84;;;18.63;75.64
58471;BME280;44258;51.288;12.068;2023-07-28T05:49:21;99392.78;;;18.55;75.85
58471;BME280;44258;51.288;12.068;2023-07-28T05:52:08;99397.09;;;18.66;75.89
58471;BME280;44258;51.288;12.068;2023-07-28T05:54:56;99392.44;;;18.84;75.31
58471;BME280;44258;51.288;12.068;2023-07-28T05:57:43;99401.19;;;18.96;74.83
58471;BME280;44258;51.288;12.068;2023-07-28T06:00:30;99403.31;;;19.10;74.17
58471;BME280;44258;51.288;12.068;2023-07-28T06:03:18;99407.72;;;18.77;74.93
58471;BME280;44258;51.288;12.068;2023-07-28T06:06:05;99422.94;;;18.88;74.96
58471;BME280;44258;51.288;12.068;2023-07-28T06:08:55;99422.84;;;18.98;74.69
58471;BME280;44258;51.288;12.068;2023-07-28T06:11:44;99418.69;;;19.20;73.74
58471;BME280;44258;51.288;12.068;2023-07-28T06:14:33;99429.06;;;19.16;73.76
58471;BME280;44258;51.288;12.068;2023-07-28T06:17:19;99436.19;;;19.17;73.97
58471;BME280;44258;51.288;12.068;2023-07-28T06:20:07;99430.66;;;19.35;73.36
58471;BME280;44258;51.288;12.068;2023-07-28T06:22:55;99427.22;;;19.33;73.03
58471;BME280;44258;51.288;12.068;2023-07-28T06:25:42;99433.34;;;19.27;73.66
58471;BME280;44258;51.288;12.068;2023-07-28T06:28:31;99434.22;;;19.36;73.35
58471;BME280;44258;51.288;12.068;2023-07-28T06:31:38;99448.59;;;19.11;73.79
58471;BME280;44258;51.288;12.068;2023-07-28T06:34:25;99453.09;;;19.21;74.22
58471;BME280;44258;51.288;12.068;2023-07-28T06:37:11;99448.91;;;19.43;74.06
58471;BME280;44258;51.288;12.068;2023-07-28T06:39:59;99458.44;;;19.81;72.50
58471;BME280;44258;51.288;12.068;2023-07-28T06:42:46;99464.78;;;20.14;71.59
58471;BME280;44258;51.288;12.068;2023-07-28T06:45:33;99468.41;;;20.56;69.95
58471;BME280;44258;51.288;12.068;2023-07-28T06:48:21;99466.16;;;20.68;69.12
58471;BME280;44258;51.288;12.068;2023-07-28T06:51:09;99463.34;;;21.01;68.77
58471;BME280;44258;51.288;12.068;2023-07-28T06:53:56;99473.34;;;21.25;67.60
58471;BME280;44258;51.288;12.068;2023-07-28T06:56:43;99466.88;;;21.26;67.53
58471;BME280;44258;51.288;12.068;2023-07-28T06:59:30;99484.75;;;21.45;66.64
58471;BME280;44258;51.288;12.068;2023-07-28T07:02:20;99483.84;;;21.61;65.86
58471;BME280;44258;51.288;12.068;2023-07-28T07:05:11;99487.53;;;21.68;65.63
58471;BME280;44258;51.288;12.068;2023-07-28T07:07:58;99502.31;;;21.59;65.33
58471;BME280;44258;51.288;12.068;2023-07-28T07:10:47;99488.25;;;21.62;65.99
58471;BME280;44258;51.288;12.068;2023-07-28T07:13:37;99482.69;;;21.86;64.25
58471;BME280;44258;51.288;12.068;2023-07-28T07:16:30;99482.47;;;21.88;64.40
58471;BME280;44258;51.288;12.068;2023-07-28T07:19:20;99481.56;;;21.72;64.87
58471;BME280;44258;51.288;12.068;2023-07-28T07:22:11;99482.78;;;21.62;64.86
58471;BME280;44258;51.288;12.068;2023-07-28T07:24:58;99478.56;;;21.51;64.90
58471;BME280;44258;51.288;12.068;2023-07-28T07:27:45;99477.81;;;21.26;65.00
58471;BME280;44258;51.288;12.068;2023-07-28T07:30:35;99486.75;;;21.59;65.04
58471;BME280;44258;51.288;12.068;2023-07-28T07:33:22;99471.84;;;21.93;64.74
58471;BME280;44258;51.288;12.068;2023-07-28T07:36:13;99473.28;;;22.12;62.71
58471;BME280;44258;51.288;12.068;2023-07-28T07:39:02;99484.09;;;21.74;63.39
58471;BME280;44258;51.288;12.068;2023-07-28T07:41:51;99483.41;;;21.72;63.30
58471;BME280;44258;51.288;12.068;2023-07-28T07:44:39;99493.66;;;21.78;63.39
58471;BME280;44258;51.288;12.068;2023-07-28T07:47:25;99491.13;;;21.29;64.35
58471;BME280;44258;51.288;12.068;2023-07-28T07:50:13;99491.63;;;21.41;64.85
58471;BME280;44258;51.288;12.068;2023-07-28T07:53:00;99485.72;;;21.60;64.07
58471;BME280;44258;51.288;12.068;2023-07-28T07:55:52;99496.47;;;21.62;64.14
58471;BME280;44258;51.288;12.068;2023-07-28T07:58:39;99494.78;;;21.61;64.07
58471;BME280;44258;51.288;12.068;2023-07-28T08:01:26;99491.47;;;21.34;64.41
58471;BME280;44258;51.288;12.068;2023-07-28T08:04:14;99491.72;;;21.56;64.12
58471;BME280;44258;51.288;12.068;2023-07-28T08:07:02;99486.13;;;21.41;64.30
58471;BME280;44258;51.288;12.068;2023-07-28T08:09:50;99503.31;;;21.58;64.24
58471;BME280;44258;51.288;12.068;2023-07-28T08:12:38;99511.91;;;21.55;63.84
58471;BME280;44258;51.288;12.068;2023-07-28T08:15:27;99507.47;;;21.85;63.16
58471;BME280;44258;51.288;12.068;2023-07-28T08:18:14;99514.53;;;21.79;63.62
58471;BME280;44258;51.288;12.068;2023-07-28T08:21:01;99522.00;;;21.85;63.22
58471;BME280;44258;51.288;12.068;2023-07-28T08:23:48;99512.91;;;22.01;63.04
58471;BME280;44258;51.288;12.068;2023-07-28T08:26:35;99515.63;;;22.01;62.42
58471;BME280;44258;51.288;12.068;2023-07-28T08:29:23;99522.63;;;21.64;63.33
58471;BME280;44258;51.288;12.068;2023-07-28T08:32:11;99519.09;;;21.87;62.88
58471;BME280;44258;51.288;12.068;2023-07-28T08:34:59;99524.03;;;21.60;63.22
58471;BME280;44258;51.288;12.068;2023-07-28T08:37:46;99529.56;;;21.83;63.46
58471;BME280;44258;51.288;12.068;2023-07-28T08:40:33;99523.00;;;21.92;62.69
58471;BME280;44258;51.288;12.068;2023-07-28T08:43:24;99523.75;;;21.78;62.64
58471;BME280;44258;51.288;12.068;2023-07-28T08:46:12;99533.16;;;21.76;62.72
58471;BME280;44258;51.288;12.068;2023-07-28T08:49:00;99531.53;;;21.98;63.22
58471;BME280;44258;51.288;12.068;2023-07-28T08:51:49;99529.28;;;22.32;62.43
58471;BME280;44258;51.288;12.068;2023-07-28T08:54:40;99534.94;;;22.54;61.83
58471;BME280;44258;51.288;12.068;2023-07-28T08:57:27;99528.66;;;22.68;61.36
58471;BME280;44258;51.288;12.068;2023-07-28T09:00:16;99528.63;;;22.91;60.37
58471;BME280;44258;51.288;12.068;2023-07-28T09:03:04;99533.16;;;23.37;58.62
58471;BME280;44258;51.288;12.068;2023-07-28T09:05:51;99529.28;;;23.46;57.73
58471;BME280;44258;51.288;12.068;2023-07-28T09:08:38;99532.38;;;23.13;58.96
58471;BME280;44258;51.288;12.068;2023-07-28T09:11:25;99526.00;;;22.98;58.52
58471;BME280;44258;51.288;12.068;2023-07-28T09:14:14;99533.13;;;23.22;57.24
58471;BME280;44258;51.288;12.068;2023-07-28T09:17:06;99528.78;;;23.13;58.08
58471;BME280;44258;51.288;12.068;2023-07-28T09:19:56;99542.31;;;23.59;57.73
58471;BME280;44258;51.288;12.068;2023-07-28T09:22:43;99542.84;;;23.99;56.10
58471;BME280;44258;51.288;12.068;2023-07-28T09:25:31;99546.34;;;23.93;56.36
58471;BME280;44258;51.288;12.068;2023-07-28T09:28:19;99551.59;;;23.88;56.78
58471;BME280;44258;51.288;12.068;2023-07-28T09:31:06;99551.06;;;23.99;55.61
58471;BME280;44258;51.288;12.068;2023-07-28T09:33:53;99550.84;;;24.52;54.44
58471;BME280;44258;51.288;12.068;2023-07-28T09:36:44;99562.44;;;24.47;54.28
58471;BME280;44258;51.288;12.068;2023-07-28T09:39:31;99569.06;;;24.53;53.65
58471;BME280;44258;51.288;12.068;2023-07-28T09:42:22;99560.59;;;24.55;53.23
58471;BME280;44258;51.288;12.068;2023-07-28T09:45:11;99563.16;;;24.56;53.87
58471;BME280;44258;51.288;12.068;2023-07-28T09:48:01;99564.53;;;24.88;53.80
58471;BME280;44258;51.288;12.068;2023-07-28T09:50:49;99571.81;;;25.24;52.76
58471;BME280;44258;51.288;12.068;2023-07-28T09:53:43;99579.75;;;25.13;51.54
58471;BME280;44258;51.288;12.068;2023-07-28T09:56:32;99574.69;;;24.88;52.14
58471;BME280;44258;51.288;12.068;2023-07-28T09:59:24;99576.88;;;24.99;52.60
58471;BME280;44258;51.288;12.068;2023-07-28T10:02:17;99569.91;;;24.75;53.87
58471;BME280;44258;51.288;12.068;2023-07-28T10:05:05;99585.56;;;24.96;52.73
58471;BME280;44258;51.288;12.068;2023-07-28T10:07:53;99579.31;;;24.66;52.59
58471;BME280;44258;51.288;12.068;2023-07-28T10:10:42;99590.03;;;24.61;53.02
58471;BME280;44258;51.288;12.068;2023-07-28T10:13:39;99587.03;;;24.56;52.55
58471;BME280;44258;51.288;12.068;2023-07-28T10:16:30;99588.78;;;24.42;53.64
58471;BME280;44258;51.288;12.068;2023-07-28T10:19:19;99584.00;;;24.50;53.43
58471;BME280;44258;51.288;12.068;2023-07-28T10:22:08;99585.31;;;24.33;53.95
58471;BME280;44258;51.288;12.068;2023-07-28T10:25:00;99590.09;;;24.46;53.24
58471;BME280;44258;51.288;12.068;2023-07-28T10:27:51;99584.22;;;24.70;52.94
58471;BME280;44258;51.288;12.068;2023-07-28T10:30:51;99594.03;;;25.01;51.93
58471;BME280;44258;51.288;12.068;2023-07-28T10:33:39;99591.56;;;25.35;51.55
58471;BME280;44258;51.288;12.068;2023-07-28T10:36:33;99597.66;;;25.30;51.25
58471;BME280;44258;51.288;12.068;2023-07-28T10:39:21;99586.53;;;25.38;51.90
58471;BME280;44258;51.288;12.068;2023-07-28T10:42:08;99593.16;;;25.50;51.92
58471;BME280;44258;51.288;12.068;2023-07-28T10:44:58;99591.94;;;25.31;51.55
58471;BME280;44258;51.288;12.068;2023-07-28T10:47:46;99598.19;;;25.12;51.62
58471;BME280;44258;51.288;12.068;2023-07-28T10:50:33;99598.88;;;24.99;52.34
58471;BME280;44258;51.288;12.068;2023-07-28T10:53:22;99609.88;;;25.21;52.19
58471;BME280;44258;51.288;12.068;2023-07-28T10:56:09;99595.16;;;25.35;51.37
58471;BME280;44258;51.288;12.068;2023-07-28T10:58:57;99589.75;;;25.48;51.56
58471;BME280;44258;51.288;12.068;2023-07-28T11:01:46;99595.31;;;25.90;50.45
58471;BME280;44258;51.288;12.068;2023-07-28T11:04:33;99588.03;;;26.17;49.33
58471;BME280;44258;51.288;12.068;2023-07-28T11:07:20;99577.50;;;25.86;49.54
58471;BME280;44258;51.288;12.068;2023-07-28T11:10:07;99582.91;;;25.66;50.31
58471;BME280;44258;51.288;12.068;2023-07-28T11:12:59;99581.28;;;25.43;50.83
58471;BME280;44258;51.288;12.068;2023-07-28T11:15:49;99571.09;;;25.44;50.84
58471;BME280;44258;51.288;12.068;2023-07-28T11:18:38;99584.81;;;25.09;51.02
58471;BME280;44258;51.288;12.068;2023-07-28T11:21:25;99574.31;;;25.47;51.16
58471;BME280;44258;51.288;12.068;2023-07-28T11:24:18;99571.09;;;25.44;50.97
58471;BME280;44258;51.288;12.068;2023-07-28T11:27:06;99580.78;;;25.68;51.08
58471;BME280;44258;51.288;12.068;2023-07-28T11:29:54;99572.09;;;25.71;51.38
58471;BME280;44258;51.288;12.068;2023-07-28T11:32:45;99572.59;;;25.46;50.26
58471;BME280;44258;51.288;12.068;2023-07-28T11:35:37;99571.72;;;25.39;51.06
58471;BME280;44258;51.288;12.068;2023-07-28T11:38:28;99575.75;;;25.37;51.20
58471;BME280;44258;51.288;12.068;2023-07-28T11:41:20;99575.84;;;25.57;51.10
58471;BME280;44258;51.288;12.068;2023-07-28T11:44:08;99574.28;;;25.82;50.66
58471;BME280;44258;51.288;12.068;2023-07-28T11:46:55;99571.63;;;25.96;50.54
58471;BME280;44258;51.288;12.068;2023-07-28T11:49:46;99582.88;;;26.01;50.49
58471;BME280;44258;51.288;12.068;2023-07-28T11:52:36;99575.94;;;25.70;50.35
58471;BME280;44258;51.288;12.068;2023-07-28T11:55:29;99568.69;;;25.69;51.30
58471;BME280;44258;51.288;12.068;2023-07-28T11:58:16;99576.25;;;25.54;50.62
58471;BME280;44258;51.288;12.068;2023-07-28T12:01:07;99577.28;;;25.52;51.53
58471;BME280;44258;51.288;12.068;2023-07-28T12:03:55;99578.31;;;25.80;50.67
58471;BME280;44258;51.288;12.068;2023-07-28T12:07:00;99573.22;;;26.18;51.37
58471;BME280;44258;51.288;12.068;2023-07-28T12:09:49;99578.16;;;26.43;49.90
58471;BME280;44258;51.288;12.068;2023-07-28T12:12:41;99574.88;;;26.06;49.38
58471;BME280;44258;51.288;12.068;2023-07-28T12:15:30;99584.13;;;25.98;50.30
58471;BME280;44258;51.288;12.068;2023-07-28T12:18:21;99575.38;;;25.88;50.64
58471;BME280;44258;51.288;12.068;2023-07-28T12:21:12;99577.94;;;25.55;50.43
58471;BME280;44258;51.288;12.068;2023-07-28T12:24:03;99595.75;;;24.81;51.17
58471;BME280;44258;51.288;12.068;2023-07-28T12:26:55;99602.34;;;24.80;56.72
58471;BME280;44258;51.288;12.068;2023-07-28T12:29:44;99602.44;;;24.71;58.94
58471;BME280;44258;51.288;12.068;2023-07-28T12:32:31;99592.19;;;24.80;58.72
58471;BME280;44258;51.288;12.068;2023-07-28T12:35:18;99597.94;;;25.14;59.78
58471;BME280;44258;51.288;12.068;2023-07-28T12:38:10;99600.31;;;25.17;61.05
58471;BME280;44258;51.288;12.068;2023-07-28T12:40:59;99590.06;;;24.82;58.79
58471;BME280;44258;51.288;12.068;2023-07-28T12:43:47;99594.19;;;25.43;59.02
58471;BME280;44258;51.288;12.068;2023-07-28T12:50:28;99596.75;;;24.95;58.96
58471;BME280;44258;51.288;12.068;2023-07-28T12:53:16;99597.16;;;25.20;57.99
58471;BME280;44258;51.288;12.068;2023-07-28T12:56:03;99594.09;;;25.36;58.02
58471;BME280;44258;51.288;12.068;2023-07-28T12:58:52;99593.13;;;25.44;57.59
58471;BME280;44258;51.288;12.068;2023-07-28T13:01:39;99597.75;;;25.37;56.59
58471;BME280;44258;51.288;12.068;2023-07-28T13:04:26;99586.13;;;25.41;56.24
58471;BME280;44258;51.288;12.068;2023-07-28T13:07:15;99593.03;;;25.30;54.06
58471;BME280;44258;51.288;12.068;2023-07-28T13:10:05;99597.97;;;25.70;54.32
58471;BME280;44258;51.288;12.068;2023-07-28T13:12:52;99590.09;;;26.02;54.31
58471;BME280;44258;51.288;12.068;2023-07-28T13:15:40;99591.88;;;26.29;54.23
58471;BME280;44258;51.288;12.068;2023-07-28T13:18:27;99605.22;;;26.19;52.29
58471;BME280;44258;51.288;12.068;2023-07-28T13:21:17;99613.31;;;25.92;50.87
58471;BME280;44258;51.288;12.068;2023-07-28T13:24:04;99600.53;;;25.78;52.00
58471;BME280;44258;51.288;12.068;2023-07-28T13:26:51;99599.34;;;25.87;51.37
58471;BME280;44258;51.288;12.068;2023-07-28T13:29:39;99599.81;;;25.98;51.01
58471;BME280;44258;51.288;12.068;2023-07-28T13:32:28;99599.72;;;25.84;51.41
58471;BME280;44258;51.288;12.068;2023-07-28T13:35:15;99605.97;;;25.65;50.23
58471;BME280;44258;51.288;12.068;2023-07-28T13:38:02;99602.41;;;25.71;50.45
58471;BME280;44258;51.288;12.068;2023-07-28T13:40:49;99601.31;;;25.65;50.81
58471;BME280;44258;51.288;12.068;2023-07-28T13:43:36;99594.00;;;25.79;50.95
58471;BME280;44258;51.288;12.068;2023-07-28T13:46:23;99600.34;;;25.80;51.05
58471;BME280;44258;51.288;12.068;2023-07-28T13:49:11;99591.53;;;25.63;49.84
58471;BME280;44258;51.288;12.068;2023-07-28T13:51:58;99585.97;;;25.49;49.92
58471;BME280;44258;51.288;12.068;2023-07-28T13:54:45;99599.78;;;25.56;49.76
58471;BME280;44258;51.288;12.068;2023-07-28T13:57:32;99594.22;;;25.49;50.33
58471;BME280;44258;51.288;12.068;2023-07-28T14:00:19;99588.44;;;25.73;50.41
58471;BME280;44258;51.288;12.068;2023-07-28T14:03:06;99597.13;;;25.76;50.51
58471;BME280;44258;51.288;12.068;2023-07-28T14:05:55;99604.75;;;26.09;51.12
58471;BME280;44258;51.288;12.068;2023-07-28T14:08:45;99607.09;;;26.12;49.49
58471;BME280;44258;51.288;12.068;2023-07-28T14:11:32;99609.53;;;25.94;49.91
58471;BME280;44258;51.288;12.068;2023-07-28T14:14:19;99610.63;;;25.64;50.17
58471;BME280;44258;51.288;12.068;2023-07-28T14:17:06;99603.09;;;25.45;50.08
58471;BME280;44258;51.288;12.068;2023-07-28T14:19:53;99607.72;;;25.44;49.21
58471;BME280;44258;51.288;12.068;2023-07-28T14:22:41;99604.84;;;25.87;49.68
58471;BME280;44258;51.288;12.068;2023-07-28T14:25:28;99601.63;;;26.32;48.90
58471;BME280;44258;51.288;12.068;2023-07-28T14:28:15;99604.06;;;26.55;48.75
58471;BME280;44258;51.288;12.068;2023-07-28T14:31:02;99606.31;;;26.31;47.52
58471;BME280;44258;51.288;12.068;2023-07-28T14:33:49;99611.88;;;26.38;47.24
58471;BME280;44258;51.288;12.068;2023-07-28T14:36:37;99616.47;;;26.24;48.16
58471;BME280;44258;51.288;12.068;2023-07-28T14:39:26;99615.59;;;26.17;48.69
58471;BME280;44258;51.288;12.068;2023-07-28T14:42:12;99617.72;;;26.22;48.43